createdAt,value
2018-04-27T00:01:17.267Z,99.90
2018-04-27T00:03:45.615Z,99.90
2018-04-27T00:06:14.014Z,99.90
2018-04-27T00:08:43.125Z,99.90
2018-04-27T00:11:12.335Z,99.90
2018-04-27T00:13:40.699Z,99.90
2018-04-27T00:16:09.198Z,99.90
2018-04-27T00:18:37.533Z,99.90
2018-04-27T00:21:06.004Z,99.90
2018-04-27T00:23:34.519Z,99.90
2018-04-27T00:26:02.812Z,99.90
2018-04-27T00:28:31.914Z,99.90
2018-04-27T00:31:01.026Z,99.90
2018-04-27T00:33:29.370Z,99.90
2018-04-27T00:35:58.546Z,99.90
2018-04-27T00:38:26.884Z,99.90
2018-04-27T00:40:55.980Z,99.90
2018-04-27T00:43:25.129Z,99.90
2018-04-27T00:45:53.454Z,99.90
2018-04-27T00:48:22.595Z,99.90
2018-04-27T00:50:50.939Z,99.90
2018-04-27T00:53:20.342Z,99.90
2018-04-27T00:55:49.452Z,99.90
2018-04-27T00:58:18.586Z,99.90
2018-04-27T01:00:46.933Z,99.90
2018-04-27T01:03:16.126Z,99.90
2018-04-27T01:05:45.245Z,99.90
2018-04-27T01:08:13.598Z,99.90
2018-04-27T01:10:42.776Z,99.90
2018-04-27T01:13:11.134Z,99.90
2018-04-27T01:15:39.472Z,99.90
2018-04-27T01:18:08.577Z,99.90
2018-04-27T01:20:38.070Z,99.90
2018-04-27T01:23:06.412Z,99.90
2018-04-27T01:25:34.784Z,99.90
2018-04-27T01:28:03.230Z,99.90
2018-04-27T01:30:31.787Z,99.90
2018-04-27T01:33:00.769Z,99.90
2018-04-27T01:35:29.126Z,99.90
2018-04-27T01:37:57.456Z,99.90
2018-04-27T01:40:25.790Z,99.90
2018-04-27T01:42:54.129Z,99.90
2018-04-27T01:45:23.231Z,99.90
2018-04-27T01:47:52.339Z,99.90
2018-04-27T01:50:21.479Z,99.90
2018-04-27T01:52:49.817Z,99.90
2018-04-27T01:55:18.943Z,99.90
2018-04-27T01:57:47.278Z,99.90
2018-04-27T02:00:15.635Z,99.90
2018-04-27T02:02:43.958Z,99.90
2018-04-27T02:05:13.057Z,99.90
2018-04-27T02:07:42.268Z,99.90
2018-04-27T02:10:11.404Z,99.90
2018-04-27T02:12:39.725Z,99.90
2018-04-27T02:15:08.043Z,99.90
2018-04-27T02:17:36.355Z,99.90
2018-04-27T02:20:04.667Z,99.90
2018-04-27T02:22:32.967Z,99.90
2018-04-27T02:25:02.059Z,99.90
2018-04-27T02:27:31.157Z,99.90
2018-04-27T02:30:00.251Z,99.90
2018-04-27T02:32:28.551Z,99.90
2018-04-27T02:34:57.625Z,99.90
2018-04-27T02:37:25.935Z,99.90
2018-04-27T02:39:55.021Z,99.90
2018-04-27T02:42:24.099Z,99.90
2018-04-27T02:44:52.395Z,99.90
2018-04-27T02:47:21.461Z,99.90
2018-04-27T02:49:49.772Z,99.90
2018-04-27T02:52:18.864Z,99.90
2018-04-27T02:54:47.163Z,99.90
2018-04-27T02:57:16.510Z,99.90
2018-04-27T02:59:44.930Z,99.90
2018-04-27T03:02:13.287Z,99.90
2018-04-27T03:04:41.610Z,99.90
2018-04-27T03:07:10.693Z,99.90
2018-04-27T03:09:39.901Z,99.90
2018-04-27T03:12:08.967Z,99.90
2018-04-27T03:14:37.292Z,99.90
2018-04-27T03:17:06.360Z,99.90
2018-04-27T03:19:34.688Z,99.90
2018-04-27T03:22:02.987Z,99.90
2018-04-27T03:24:31.287Z,99.90
2018-04-27T03:26:59.606Z,99.90
2018-04-27T03:29:28.696Z,99.90
2018-04-27T03:31:57.759Z,99.90
2018-04-27T03:34:26.247Z,99.90
2018-04-27T03:36:55.183Z,99.90
2018-04-27T03:39:24.259Z,99.90
2018-04-27T03:41:53.070Z,99.90
2018-04-27T03:44:22.136Z,99.90
2018-04-27T03:46:50.448Z,99.90
2018-04-27T03:49:19.532Z,99.90
2018-04-27T03:51:47.950Z,99.90
2018-04-27T03:54:16.225Z,99.90
2018-04-27T03:56:44.551Z,99.90
2018-04-27T03:59:12.916Z,99.90
2018-04-27T04:01:59.178Z,99.90
2018-04-27T04:18:24.630Z,99.90
2018-04-27T04:20:53.696Z,99.90
2018-04-27T04:23:22.062Z,99.90
2018-04-27T04:25:50.379Z,99.90
2018-04-27T04:28:18.691Z,99.90
2018-04-27T04:30:47.011Z,99.90
2018-04-27T04:33:15.343Z,99.90
2018-04-27T04:35:44.461Z,99.90
2018-04-27T04:38:12.830Z,99.90
2018-04-27T04:40:41.156Z,99.90
2018-04-27T04:43:09.499Z,99.90
2018-04-27T04:45:38.582Z,99.90
2018-04-27T04:48:07.677Z,99.90
2018-04-27T04:50:36.739Z,99.90
2018-04-27T04:53:06.555Z,99.90
2018-04-27T04:55:35.006Z,99.90
2018-04-27T04:58:03.316Z,99.90
2018-04-27T05:00:31.619Z,99.90
2018-04-27T05:02:59.952Z,99.90
2018-04-27T05:05:28.269Z,99.90
2018-04-27T05:07:56.590Z,99.90
2018-04-27T05:10:25.649Z,99.90
2018-04-27T05:12:53.952Z,99.90
2018-04-27T05:15:22.246Z,99.90
2018-04-27T05:17:51.322Z,99.90
2018-04-27T05:20:18.838Z,99.90
2018-04-27T05:22:47.152Z,99.90
2018-04-27T05:25:15.464Z,99.90
2018-04-27T05:27:44.527Z,99.90
2018-04-27T05:30:12.821Z,99.90
2018-04-27T05:32:41.137Z,99.90
2018-04-27T05:35:09.452Z,99.90
2018-04-27T05:37:37.760Z,99.90
2018-04-27T05:40:06.057Z,99.90
2018-04-27T05:42:34.357Z,99.90
2018-04-27T05:45:03.460Z,99.90
2018-04-27T05:47:31.743Z,99.90
2018-04-27T05:50:00.039Z,99.90
2018-04-27T05:52:28.354Z,99.90
2018-04-27T05:54:56.662Z,99.90
2018-04-27T05:57:25.730Z,99.90
2018-04-27T05:59:54.034Z,99.90
2018-04-27T06:02:22.339Z,99.90
2018-04-27T06:04:51.312Z,99.90
2018-04-27T06:07:19.675Z,99.90
2018-04-27T06:09:47.976Z,99.90
2018-04-27T06:12:16.283Z,99.90
2018-04-27T06:14:44.595Z,99.90
2018-04-27T06:17:13.068Z,99.90
2018-04-27T06:19:41.377Z,99.90
2018-04-27T06:22:09.675Z,99.90
2018-04-27T06:24:37.994Z,99.90
2018-04-27T06:27:06.299Z,99.90
2018-04-27T06:29:34.614Z,99.90
2018-04-27T06:32:02.939Z,99.90
2018-04-27T06:34:31.243Z,99.90
2018-04-27T06:36:59.546Z,99.90
2018-04-27T06:39:27.890Z,99.90
2018-04-27T06:41:56.176Z,99.90
2018-04-27T06:44:24.538Z,99.90
2018-04-27T06:46:52.864Z,99.90
2018-04-27T06:49:21.185Z,99.90
2018-04-27T06:51:50.614Z,99.90
2018-04-27T06:54:18.944Z,99.90
2018-04-27T06:56:47.259Z,99.90
2018-04-27T06:59:16.436Z,99.90
2018-04-27T07:01:44.660Z,99.90
2018-04-27T07:04:12.958Z,99.90
2018-04-27T07:06:41.280Z,99.90
2018-04-27T07:09:09.713Z,99.90
2018-04-27T07:11:38.126Z,99.90
2018-04-27T07:14:07.127Z,99.90
2018-04-27T07:16:36.273Z,99.90
2018-04-27T07:19:05.347Z,99.90
2018-04-27T07:21:33.651Z,99.90
2018-04-27T07:24:01.971Z,99.90
2018-04-27T07:26:30.267Z,99.90
2018-04-27T07:28:58.563Z,99.90
2018-04-27T07:31:28.021Z,99.90
2018-04-27T07:33:56.345Z,99.90
2018-04-27T07:36:24.685Z,99.90
2018-04-27T07:38:53.019Z,99.90
2018-04-27T07:41:21.319Z,99.90
2018-04-27T07:43:50.407Z,99.90
2018-04-27T07:46:18.700Z,99.90
2018-04-27T07:48:47.800Z,99.90
2018-04-27T07:51:16.900Z,99.90
2018-04-27T07:53:45.990Z,99.90
2018-04-27T07:56:15.076Z,99.90
2018-04-27T07:58:43.400Z,99.90
2018-04-27T08:01:11.712Z,99.90
2018-04-27T08:03:40.005Z,99.90
2018-04-27T08:06:08.312Z,99.90
2018-04-27T08:08:37.404Z,99.90
2018-04-27T08:11:05.716Z,99.90
2018-04-27T08:13:34.021Z,99.90
2018-04-27T08:16:02.383Z,99.90
2018-04-27T08:18:30.695Z,99.90
2018-04-27T08:20:59.014Z,99.90
2018-04-27T08:23:27.334Z,99.90
2018-04-27T08:25:55.656Z,99.10
2018-04-27T08:28:23.967Z,97.30
2018-04-27T08:30:53.243Z,94.50
2018-04-27T08:33:21.554Z,94.50
2018-04-27T08:35:50.628Z,91.30
2018-04-27T08:38:18.957Z,91.30
2018-04-27T08:40:47.260Z,90.40
2018-04-27T08:43:15.576Z,88.20
2018-04-27T08:45:43.903Z,86.20
2018-04-27T08:48:12.229Z,83.60
2018-04-27T08:50:40.542Z,81.20
2018-04-27T08:53:09.613Z,76.80
2018-04-27T08:55:37.919Z,76.60
2018-04-27T08:58:07.027Z,73.20
2018-04-27T09:00:36.104Z,70.10
2018-04-27T09:03:04.423Z,69.90
2018-04-27T09:05:32.729Z,67.90
2018-04-27T09:08:01.396Z,65.80
2018-04-27T09:10:29.914Z,64.90
2018-04-27T09:12:58.204Z,64.10
2018-04-27T09:15:26.501Z,63.40
2018-04-27T09:17:54.789Z,62.00
2018-04-27T09:20:23.914Z,60.20
2018-04-27T09:22:52.218Z,60.00
2018-04-27T09:25:20.592Z,60.10
2018-04-27T09:27:48.884Z,60.80
2018-04-27T09:30:17.197Z,59.60
2018-04-27T09:32:45.493Z,59.10
2018-04-27T09:35:13.817Z,58.70
2018-04-27T09:37:42.145Z,59.40
2018-04-27T09:40:11.260Z,59.60
2018-04-27T09:42:40.326Z,60.20
2018-04-27T09:45:08.637Z,60.10
2018-04-27T09:47:37.746Z,60.20
2018-04-27T09:50:06.144Z,59.50
2018-04-27T09:52:34.532Z,59.10
2018-04-27T09:55:02.833Z,58.90
2018-04-27T09:57:31.199Z,57.90
2018-04-27T09:59:59.456Z,58.00
2018-04-27T10:02:28.527Z,57.20
2018-04-27T10:04:56.825Z,57.20
2018-04-27T10:07:25.122Z,56.80
2018-04-27T10:09:54.035Z,56.60
2018-04-27T10:12:22.346Z,56.50
2018-04-27T10:14:50.649Z,56.40
2018-04-27T10:17:18.951Z,56.50
2018-04-27T10:19:48.008Z,55.70
2018-04-27T10:22:16.974Z,55.60
2018-04-27T10:24:45.319Z,55.10
2018-04-27T10:27:14.406Z,54.50
2018-04-27T10:29:42.706Z,54.40
2018-04-27T10:32:11.788Z,53.50
2018-04-27T10:34:40.094Z,53.50
2018-04-27T10:37:09.167Z,52.40
2018-04-27T10:39:37.449Z,52.30
2018-04-27T10:42:06.700Z,51.20
2018-04-27T10:44:35.074Z,51.10
2018-04-27T10:47:03.368Z,50.90
2018-04-27T10:49:31.700Z,50.50
2018-04-27T10:52:00.765Z,49.30
2018-04-27T10:54:29.086Z,49.20
2018-04-27T10:56:58.148Z,48.30
2018-04-27T10:59:26.442Z,48.20
2018-04-27T11:01:54.827Z,48.00
2018-04-27T11:04:24.629Z,46.80
2018-04-27T11:06:52.927Z,46.70
2018-04-27T11:09:21.226Z,46.50
2018-04-27T11:11:50.355Z,43.60
2018-04-27T11:14:18.721Z,43.60
2018-04-27T11:16:47.847Z,41.90
2018-04-27T11:19:16.089Z,41.70
2018-04-27T11:21:46.980Z,41.70
2018-04-27T11:24:15.920Z,41.50
2018-04-27T11:26:44.570Z,41.20
2018-04-27T11:29:12.883Z,40.70
2018-04-27T11:31:41.207Z,40.70
2018-04-27T11:34:09.577Z,40.00
2018-04-27T11:36:37.891Z,38.80
2018-04-27T11:39:06.213Z,37.80
2018-04-27T11:41:34.521Z,37.20
2018-04-27T11:44:02.833Z,36.40
2018-04-27T11:46:31.206Z,36.40
2018-04-27T11:48:59.550Z,36.10
2018-04-27T11:51:28.626Z,34.70
2018-04-27T11:53:57.520Z,34.50
2018-04-27T11:56:25.826Z,33.80
2018-04-27T11:58:54.922Z,33.50
2018-04-27T12:01:23.996Z,32.60
2018-04-27T12:03:52.396Z,32.50
2018-04-27T12:06:20.744Z,32.10
2018-04-27T12:08:49.050Z,31.00
2018-04-27T12:11:17.363Z,30.70
2018-04-27T12:13:46.424Z,30.70
2018-04-27T12:16:14.731Z,30.60
2018-04-27T12:18:43.794Z,31.10
2018-04-27T12:21:12.098Z,31.10
2018-04-27T12:23:40.418Z,31.20
2018-04-27T12:26:08.816Z,31.70
2018-04-27T12:28:37.132Z,32.00
2018-04-27T12:31:05.450Z,32.30
2018-04-27T12:33:34.516Z,34.20
2018-04-27T12:36:02.814Z,34.10
2018-04-27T12:38:31.138Z,34.70
2018-04-27T12:40:59.445Z,35.10
2018-04-27T12:43:27.756Z,36.00
2018-04-27T12:45:56.064Z,37.00
2018-04-27T12:48:24.374Z,37.40
2018-04-27T12:50:52.679Z,37.90
2018-04-27T12:53:20.993Z,38.60
2018-04-27T12:55:50.281Z,39.10
2018-04-27T12:58:18.686Z,38.90
2018-04-27T13:00:47.775Z,40.20
2018-04-27T13:03:16.870Z,40.80
2018-04-27T13:05:45.950Z,41.20
2018-04-27T13:08:14.254Z,41.10
2018-04-27T13:10:44.238Z,41.70
2018-04-27T13:13:12.645Z,42.20
2018-04-27T13:15:41.733Z,42.90
2018-04-27T13:18:10.061Z,42.90
2018-04-27T13:20:38.582Z,43.50
2018-04-27T13:23:06.899Z,43.90
2018-04-27T13:25:35.209Z,44.20
2018-04-27T13:28:03.521Z,44.80
2018-04-27T13:30:31.822Z,45.60
2018-04-27T13:33:00.136Z,45.60
2018-04-27T13:35:29.200Z,44.70
2018-04-27T13:37:57.550Z,44.60
2018-04-27T13:40:25.868Z,43.50
2018-04-27T13:42:54.168Z,43.70
2018-04-27T13:45:23.290Z,43.70
2018-04-27T13:47:51.601Z,43.80
2018-04-27T13:50:19.910Z,43.60
2018-04-27T13:52:48.208Z,43.90
2018-04-27T13:55:17.284Z,41.70
2018-04-27T13:57:45.633Z,41.70
2018-04-27T14:00:13.938Z,41.40
2018-04-27T14:02:42.331Z,41.00
2018-04-27T14:05:11.359Z,40.80
2018-04-27T14:07:40.420Z,41.20
2018-04-27T14:10:08.744Z,41.20
2018-04-27T14:12:37.829Z,42.20
2018-04-27T14:15:06.123Z,42.20
2018-04-27T14:17:35.197Z,40.90
2018-04-27T14:20:03.504Z,40.80
2018-04-27T14:22:32.560Z,40.60
2018-04-27T14:25:00.857Z,40.50
2018-04-27T14:27:29.179Z,40.50
2018-04-27T14:29:57.473Z,40.20
2018-04-27T14:32:25.779Z,40.20
2018-04-27T14:34:54.076Z,40.50
2018-04-27T14:37:22.366Z,40.70
2018-04-27T14:39:50.730Z,40.70
2018-04-27T14:42:19.195Z,41.40
2018-04-27T14:44:47.512Z,41.60
2018-04-27T14:47:16.592Z,41.00
2018-04-27T14:49:44.916Z,40.90
2018-04-27T14:52:14.058Z,40.60
2018-04-27T14:54:42.368Z,40.60
2018-04-27T14:57:10.674Z,40.70
2018-04-27T14:59:39.773Z,40.10
2018-04-27T15:02:08.069Z,40.00
2018-04-27T15:04:36.381Z,39.30
2018-04-27T15:07:04.699Z,39.20
2018-04-27T15:09:33.029Z,37.50
2018-04-27T15:12:01.376Z,37.90
2018-04-27T15:14:29.631Z,36.20
2018-04-27T15:16:58.047Z,35.10
2018-04-27T15:19:27.119Z,33.80
2018-04-27T15:21:56.151Z,33.70
2018-04-27T15:24:25.205Z,34.30
2018-04-27T15:26:53.520Z,34.30
2018-04-27T15:29:22.593Z,35.20
2018-04-27T15:31:50.893Z,35.20
2018-04-27T15:34:19.198Z,35.50
2018-04-27T15:36:47.588Z,36.00
2018-04-27T15:39:15.898Z,36.20
2018-04-27T15:41:44.199Z,36.40
2018-04-27T15:44:12.498Z,36.90
2018-04-27T15:46:40.831Z,37.30
2018-04-27T15:49:09.133Z,37.40
2018-04-27T15:51:38.225Z,38.00
2018-04-27T15:54:06.535Z,38.10
2018-04-27T15:56:34.899Z,38.60
2018-04-27T15:59:03.203Z,39.30
2018-04-27T16:01:31.545Z,38.50
2018-04-27T16:03:59.855Z,37.00
2018-04-27T16:06:28.161Z,37.10
2018-04-27T16:08:57.219Z,36.40
2018-04-27T16:11:25.515Z,36.40
2018-04-27T16:13:55.554Z,36.30
2018-04-27T16:16:24.663Z,37.60
2018-04-27T16:18:55.549Z,38.00
2018-04-27T16:21:23.859Z,38.00
2018-04-27T16:23:52.179Z,38.80
2018-04-27T16:26:25.761Z,39.40
2018-04-27T16:28:54.833Z,40.70
2018-04-27T16:31:23.128Z,40.60
2018-04-27T16:33:51.441Z,41.30
2018-04-27T16:36:19.765Z,42.00
2018-04-27T16:38:48.093Z,42.50
2018-04-27T16:41:17.179Z,43.90
2018-04-27T16:43:46.260Z,44.60
2018-04-27T16:46:14.554Z,44.50
2018-04-27T16:48:43.611Z,46.40
2018-04-27T16:51:12.717Z,46.70
2018-04-27T16:53:41.019Z,46.30
2018-04-27T16:56:09.434Z,46.90
2018-04-27T16:58:38.509Z,47.50
2018-04-27T17:01:06.838Z,47.50
2018-04-27T17:03:35.157Z,47.60
2018-04-27T17:06:03.451Z,47.90
2018-04-27T17:08:31.834Z,48.40
2018-04-27T17:11:00.135Z,48.60
2018-04-27T17:13:29.231Z,49.60
2018-04-27T17:15:57.545Z,49.60
2018-04-27T17:18:25.866Z,49.70
2018-04-27T17:20:54.168Z,50.80
2018-04-27T17:23:23.226Z,50.80
2018-04-27T17:25:51.532Z,50.80
2018-04-27T17:28:19.842Z,51.20
2018-04-27T17:30:48.165Z,51.70
2018-04-27T17:33:16.457Z,52.20
2018-04-27T17:35:44.777Z,52.30
2018-04-27T17:38:13.834Z,52.80
2018-04-27T17:40:42.126Z,52.70
2018-04-27T17:43:10.430Z,53.10
2018-04-27T17:45:39.510Z,53.70
2018-04-27T17:48:07.820Z,53.70
2018-04-27T17:50:36.914Z,54.50
2018-04-27T17:53:05.979Z,54.80
2018-04-27T17:55:34.270Z,54.70
2018-04-27T17:58:02.614Z,54.90
2018-04-27T18:00:30.919Z,55.00
2018-04-27T18:02:59.235Z,55.50
2018-04-27T18:05:28.309Z,56.40
2018-04-27T18:07:56.612Z,56.40
2018-04-27T18:10:25.697Z,57.10
2018-04-27T18:12:54.006Z,57.00
2018-04-27T18:15:22.305Z,57.60
2018-04-27T18:17:50.631Z,58.40
2018-04-27T18:20:18.934Z,58.90
2018-04-27T18:22:48.023Z,59.80
2018-04-27T18:25:17.094Z,60.70
2018-04-27T18:27:45.757Z,60.70
2018-04-27T18:30:14.023Z,61.30
2018-04-27T18:32:42.404Z,62.20
2018-04-27T18:35:11.021Z,63.10
2018-04-27T18:37:39.333Z,64.00
2018-04-27T18:40:07.633Z,64.80
2018-04-27T18:42:36.775Z,66.70
2018-04-27T18:45:05.437Z,66.60
2018-04-27T18:47:33.751Z,67.70
2018-04-27T18:50:02.057Z,68.70
2018-04-27T18:52:30.415Z,69.30
2018-04-27T18:54:58.709Z,70.00
2018-04-27T18:57:27.016Z,70.60
2018-04-27T18:59:56.808Z,72.10
2018-04-27T19:02:25.137Z,71.50
2018-04-27T19:04:53.459Z,71.80
2018-04-27T19:07:22.683Z,72.10
2018-04-27T19:09:51.001Z,72.30
2018-04-27T19:12:19.603Z,72.60
2018-04-27T19:14:47.924Z,72.80
2018-04-27T19:17:16.244Z,73.00
2018-04-27T19:19:45.341Z,74.10
2018-04-27T19:22:20.844Z,74.50
2018-04-27T19:24:49.184Z,74.50
2018-04-27T19:27:17.677Z,74.50
2018-04-27T19:29:45.992Z,74.40
2018-04-27T19:32:14.281Z,74.70
2018-04-27T19:34:44.087Z,75.00
2018-04-27T19:37:12.404Z,75.00
2018-04-27T19:39:41.496Z,75.60
2018-04-27T19:42:10.603Z,75.80
2018-04-27T19:44:39.715Z,76.40
2018-04-27T19:47:08.029Z,76.40
2018-04-27T19:49:36.367Z,76.80
2018-04-27T19:52:05.487Z,77.60
2018-04-27T19:54:33.803Z,77.60
2018-04-27T19:57:02.106Z,78.30
2018-04-27T19:59:31.177Z,79.00
2018-04-27T20:01:59.476Z,78.50
2018-04-27T20:04:29.299Z,80.10
2018-04-27T20:06:57.613Z,80.00
2018-04-27T20:09:25.943Z,80.70
2018-04-27T20:11:54.472Z,80.80
2018-04-27T20:14:41.527Z,81.10
2018-04-27T20:17:10.721Z,80.60
2018-04-27T20:19:46.289Z,82.00
2018-04-27T20:22:17.287Z,81.80
2018-04-27T20:24:45.529Z,82.70
2018-04-27T20:27:14.031Z,82.70
2018-04-27T20:29:43.172Z,83.20
2018-04-27T20:32:12.231Z,83.40
2018-04-27T20:34:41.319Z,83.60
2018-04-27T20:37:09.729Z,83.60
2018-04-27T20:39:37.993Z,83.60
2018-04-27T20:42:08.754Z,84.40
2018-04-27T20:44:37.079Z,84.30
2018-04-27T20:47:05.373Z,85.50
2018-04-27T20:49:36.382Z,86.90
2018-04-27T20:52:04.685Z,87.40
2018-04-27T20:54:33.002Z,87.50
2018-04-27T20:57:02.078Z,88.20
2018-04-27T20:59:30.522Z,88.10
2018-04-27T21:01:58.987Z,88.50
2018-04-27T21:04:27.286Z,88.70
2018-04-27T21:06:59.531Z,89.10
2018-04-27T21:09:27.816Z,90.00
2018-04-27T21:11:56.123Z,90.30
2018-04-27T21:14:24.447Z,90.40
2018-04-27T21:16:53.513Z,90.80
2018-04-27T21:19:21.869Z,90.80
2018-04-27T21:21:50.181Z,90.90
2018-04-27T21:24:18.484Z,91.00
2018-04-27T21:26:46.815Z,91.30
2018-04-27T21:29:21.600Z,91.60
2018-04-27T21:31:50.693Z,91.90
2018-04-27T21:34:18.996Z,91.90
2018-04-27T21:36:54.449Z,92.10
2018-04-27T21:39:27.302Z,92.30
2018-04-27T21:42:02.803Z,92.40
2018-04-27T21:44:49.602Z,92.30
2018-04-27T21:47:29.414Z,92.70
2018-04-27T21:49:58.492Z,92.60
2018-04-27T21:52:30.384Z,93.10
2018-04-27T21:54:59.577Z,93.10
2018-04-27T21:57:29.829Z,93.50
2018-04-27T22:00:05.684Z,93.50
2018-04-27T22:16:03.773Z,94.90
2018-04-27T22:18:35.697Z,95.30
2018-04-27T22:21:03.989Z,95.80
2018-04-27T22:23:36.844Z,96.10
2018-04-27T22:26:05.960Z,96.30
2018-04-27T22:28:41.752Z,96.90
2018-04-27T22:31:10.058Z,97.40
2018-04-27T22:33:40.937Z,98.20
2018-04-27T22:49:40.542Z,99.90
2018-04-27T22:52:08.872Z,99.90
2018-04-27T22:54:43.450Z,99.90
2018-04-27T22:57:30.173Z,99.90
2018-04-27T23:00:07.219Z,99.90
2018-04-27T23:02:36.312Z,99.90
2018-04-27T23:05:29.599Z,99.90
2018-04-27T23:08:06.136Z,99.90
2018-04-27T23:10:45.735Z,99.90
2018-04-27T23:26:43.913Z,99.90
2018-04-27T23:29:12.234Z,99.90
2018-04-27T23:31:42.286Z,99.90
2018-04-27T23:34:10.594Z,99.90
2018-04-27T23:36:38.893Z,99.90
2018-04-27T23:39:07.974Z,99.90
2018-04-27T23:41:37.762Z,99.90
2018-04-27T23:44:06.055Z,99.90
2018-04-27T23:46:34.356Z,99.90
2018-04-27T23:49:02.670Z,99.90
2018-04-27T23:51:30.987Z,99.90
2018-04-27T23:53:59.899Z,99.90
2018-04-27T23:56:33.500Z,99.90
2018-04-27T23:59:01.817Z,99.90
